createdAt,value
2023-03-11T00:00:33.242Z,1.97
2023-03-11T00:03:03.456Z,1.80
2023-03-11T00:05:33.932Z,1.77
2023-03-11T00:08:02.497Z,1.40
2023-03-11T00:10:33.265Z,1.90
2023-03-11T00:13:02.076Z,2.03
2023-03-11T00:15:32.416Z,1.73
2023-03-11T00:18:00.798Z,1.50
2023-03-11T00:20:30.764Z,1.77
2023-03-11T00:22:59.579Z,1.90
2023-03-11T00:25:30.504Z,1.87
2023-03-11T00:27:58.817Z,2.03
2023-03-11T00:30:27.955Z,2.33
2023-03-11T00:32:59.522Z,2.00
2023-03-11T00:35:29.582Z,2.07
2023-03-11T00:37:59.588Z,1.80
2023-03-11T00:40:31.024Z,2.23
2023-03-11T00:42:59.756Z,2.13
2023-03-11T00:45:29.120Z,1.87
2023-03-11T00:47:59.193Z,2.20
2023-03-11T00:50:29.936Z,2.27
2023-03-11T00:52:58.886Z,2.53
2023-03-11T00:55:29.140Z,2.20
2023-03-11T00:58:00.267Z,1.70
2023-03-11T01:00:32.761Z,2.10
2023-03-11T01:03:02.212Z,2.10
2023-03-11T01:05:32.407Z,2.10
2023-03-11T01:08:01.259Z,2.07
2023-03-11T01:10:30.677Z,2.03
2023-03-11T01:12:58.948Z,1.87
2023-03-11T01:15:31.154Z,1.80
2023-03-11T01:18:02.133Z,1.77
2023-03-11T01:20:30.343Z,2.07
2023-03-11T01:22:58.490Z,1.83
2023-03-11T01:25:26.741Z,1.90
2023-03-11T01:27:54.934Z,1.63
2023-03-11T01:30:25.780Z,1.80
2023-03-11T01:32:55.225Z,1.70
2023-03-11T01:35:27.036Z,1.70
2023-03-11T01:37:55.364Z,1.30
2023-03-11T01:40:29.941Z,1.50
2023-03-11T01:43:00.005Z,1.80
2023-03-11T01:45:41.512Z,1.70
2023-03-11T01:48:11.917Z,1.40
2023-03-11T01:50:45.231Z,1.57
2023-03-11T01:53:15.089Z,1.53
2023-03-11T01:55:43.934Z,1.40
2023-03-11T01:58:17.134Z,1.97
2023-03-11T02:00:45.784Z,1.40
2023-03-11T02:03:19.776Z,1.20
2023-03-11T02:05:50.729Z,1.60
2023-03-11T02:08:18.792Z,1.97
2023-03-11T02:10:47.911Z,1.50
2023-03-11T02:13:17.170Z,1.60
2023-03-11T02:15:46.148Z,1.30
2023-03-11T02:18:15.975Z,1.00
2023-03-11T02:20:49.338Z,1.53
2023-03-11T02:23:22.012Z,1.53
2023-03-11T02:25:55.699Z,1.30
2023-03-11T02:28:26.504Z,1.43
2023-03-11T02:30:54.750Z,1.97
2023-03-11T02:33:24.511Z,1.50
2023-03-11T02:35:52.892Z,1.47
2023-03-11T02:38:21.072Z,1.30
2023-03-11T02:40:54.006Z,1.60
2023-03-11T02:43:34.638Z,1.13
2023-03-11T02:46:03.560Z,1.73
2023-03-11T02:48:33.234Z,1.17
2023-03-11T02:51:01.830Z,1.40
2023-03-11T02:53:34.552Z,1.30
2023-03-11T02:56:02.654Z,1.13
2023-03-11T02:58:32.511Z,1.10
2023-03-11T03:01:00.559Z,1.17
2023-03-11T03:03:28.728Z,1.40
2023-03-11T03:05:57.012Z,1.10
2023-03-11T03:08:25.133Z,1.00
2023-03-11T03:10:53.557Z,0.93
2023-03-11T03:13:21.740Z,0.73
2023-03-11T03:15:51.239Z,1.10
2023-03-11T03:18:19.300Z,1.00
2023-03-11T03:20:47.474Z,0.80
2023-03-11T03:23:17.607Z,1.27
2023-03-11T03:25:46.148Z,1.50
2023-03-11T03:28:15.369Z,1.40
2023-03-11T03:30:46.758Z,1.33
2023-03-11T03:33:16.992Z,1.37
2023-03-11T03:35:46.359Z,1.30
2023-03-11T03:38:19.890Z,1.70
2023-03-11T03:40:50.084Z,1.30
2023-03-11T03:43:20.949Z,1.10
2023-03-11T03:45:57.134Z,1.07
2023-03-11T03:48:28.453Z,1.20
2023-03-11T03:50:57.008Z,1.10
2023-03-11T03:53:25.324Z,1.10
2023-03-11T03:55:54.684Z,1.10
2023-03-11T03:58:22.869Z,1.57
2023-03-11T04:00:51.167Z,1.53
2023-03-11T04:03:19.427Z,1.17
2023-03-11T04:05:55.364Z,1.33
2023-03-11T04:08:23.508Z,1.10
2023-03-11T04:10:58.145Z,0.90
2023-03-11T04:13:27.392Z,1.30
2023-03-11T04:15:55.922Z,1.07
2023-03-11T04:18:24.053Z,0.87
2023-03-11T04:20:52.389Z,1.13
2023-03-11T04:23:22.593Z,1.13
2023-03-11T04:25:50.776Z,0.90
2023-03-11T04:28:20.165Z,1.10
2023-03-11T04:30:48.405Z,1.20
2023-03-11T04:33:16.610Z,1.27
2023-03-11T04:35:45.068Z,1.20
2023-03-11T04:38:13.245Z,1.03
2023-03-11T04:40:42.789Z,0.90
2023-03-11T04:43:11.176Z,1.27
2023-03-11T04:45:40.150Z,1.20
2023-03-11T04:48:09.250Z,1.30
2023-03-11T04:50:39.039Z,1.50
2023-03-11T04:53:07.159Z,1.10
2023-03-11T04:55:35.571Z,0.77
2023-03-11T04:58:05.206Z,1.00
2023-03-11T05:00:34.667Z,1.50
2023-03-11T05:03:10.191Z,1.40
2023-03-11T05:05:38.520Z,1.33
2023-03-11T05:08:07.275Z,1.30
2023-03-11T05:10:36.793Z,1.33
2023-03-11T05:13:08.991Z,1.17
2023-03-11T05:15:39.110Z,1.33
2023-03-11T05:18:08.186Z,1.20
2023-03-11T05:20:38.459Z,2.10
2023-03-11T05:23:07.151Z,1.03
2023-03-11T05:25:37.139Z,1.20
2023-03-11T05:28:06.292Z,1.20
2023-03-11T05:30:39.630Z,1.13
2023-03-11T05:33:07.879Z,1.10
2023-03-11T05:35:36.510Z,1.27
2023-03-11T05:38:05.011Z,1.40
2023-03-11T05:40:33.969Z,1.40
2023-03-11T05:43:02.058Z,1.33
2023-03-11T05:45:33.036Z,1.90
2023-03-11T05:48:04.347Z,1.40
2023-03-11T05:50:33.143Z,1.90
2023-03-11T05:53:01.977Z,1.67
2023-03-11T05:55:31.857Z,1.23
2023-03-11T05:58:01.100Z,1.33
2023-03-11T06:00:29.507Z,1.57
2023-03-11T06:03:00.021Z,1.23
2023-03-11T06:05:29.763Z,1.70
2023-03-11T06:07:58.771Z,1.53
2023-03-11T06:10:26.878Z,1.53
2023-03-11T06:12:55.070Z,1.53
2023-03-11T06:15:27.037Z,1.60
2023-03-11T06:17:55.596Z,1.40
2023-03-11T06:20:23.847Z,1.40
2023-03-11T06:22:53.997Z,1.40
2023-03-11T06:25:24.386Z,1.20
2023-03-11T06:27:54.414Z,1.70
2023-03-11T06:30:25.973Z,1.50
2023-03-11T06:33:01.024Z,1.30
2023-03-11T06:35:29.323Z,1.27
2023-03-11T06:37:58.740Z,1.63
2023-03-11T06:40:26.771Z,1.90
2023-03-11T06:42:55.014Z,1.63
2023-03-11T06:45:25.478Z,2.53
2023-03-11T06:47:54.186Z,2.50
2023-03-11T06:50:24.072Z,2.90
2023-03-11T06:52:53.931Z,2.70
2023-03-11T06:55:23.341Z,2.40
2023-03-11T06:57:51.542Z,2.17
2023-03-11T07:00:20.228Z,2.00
2023-03-11T07:02:53.712Z,1.73
2023-03-11T07:05:22.400Z,1.40
2023-03-11T07:07:56.380Z,1.60
2023-03-11T07:10:27.465Z,2.00
2023-03-11T07:12:55.605Z,1.50
2023-03-11T07:15:24.680Z,1.83
2023-03-11T07:17:52.893Z,1.57
2023-03-11T07:20:21.145Z,1.93
2023-03-11T07:22:49.181Z,1.63
2023-03-11T07:25:17.458Z,1.67
2023-03-11T07:27:46.842Z,1.37
2023-03-11T07:30:15.858Z,1.77
2023-03-11T07:32:43.918Z,2.20
2023-03-11T07:35:11.967Z,2.20
2023-03-11T07:37:39.986Z,2.00
2023-03-11T07:40:09.615Z,1.80
2023-03-11T07:42:37.669Z,2.40
2023-03-11T07:45:09.130Z,1.60
2023-03-11T07:47:37.170Z,2.20
2023-03-11T07:50:05.613Z,1.73
2023-03-11T07:52:33.959Z,1.70
2023-03-11T07:55:02.268Z,1.40
2023-03-11T07:57:30.284Z,1.50
2023-03-11T07:59:58.280Z,1.53
2023-03-11T08:02:28.249Z,1.40
2023-03-11T08:04:57.520Z,1.90
2023-03-11T08:07:25.596Z,1.80
2023-03-11T08:09:53.636Z,2.27
2023-03-11T08:12:21.714Z,2.03
2023-03-11T08:14:49.736Z,2.00
2023-03-11T08:17:17.784Z,1.90
2023-03-11T08:19:47.257Z,1.97
2023-03-11T08:22:15.300Z,2.27
2023-03-11T08:24:43.403Z,1.80
2023-03-11T08:27:12.390Z,1.60
2023-03-11T08:29:40.401Z,1.60
2023-03-11T08:32:08.601Z,1.30
2023-03-11T08:34:36.707Z,1.77
2023-03-11T08:37:06.916Z,1.70
2023-03-11T08:39:34.961Z,1.63
2023-03-11T08:42:04.043Z,1.90
2023-03-11T08:44:32.108Z,1.70
2023-03-11T08:47:00.144Z,1.60
2023-03-11T08:49:28.289Z,1.60
2023-03-11T08:51:56.435Z,1.53
2023-03-11T08:54:25.988Z,1.70
2023-03-11T08:56:54.015Z,1.70
2023-03-11T08:59:22.056Z,1.43
2023-03-11T09:01:50.088Z,2.17
2023-03-11T09:04:18.104Z,1.73
2023-03-11T09:06:48.786Z,1.67
2023-03-11T09:09:19.521Z,1.90
2023-03-11T09:11:49.479Z,1.93
2023-03-11T09:14:17.700Z,1.93
2023-03-11T09:16:45.740Z,2.20
2023-03-11T09:19:13.773Z,2.13
2023-03-11T09:21:41.801Z,1.70
2023-03-11T09:24:09.929Z,2.00
2023-03-11T09:26:38.005Z,1.60
2023-03-11T09:29:07.398Z,1.83
2023-03-11T09:31:35.484Z,1.67
2023-03-11T09:34:03.658Z,1.63
2023-03-11T09:36:31.935Z,1.70
2023-03-11T09:39:00.053Z,2.10
2023-03-11T09:41:40.000Z,1.90
2023-03-11T09:44:20.099Z,1.67
2023-03-11T09:47:23.791Z,1.85
2023-03-11T09:50:11.962Z,1.67
2023-03-11T09:52:45.900Z,2.00
2023-03-11T09:55:28.131Z,1.83
2023-03-11T09:57:57.942Z,2.00
2023-03-11T10:00:27.491Z,1.85
2023-03-11T10:02:56.529Z,1.95
2023-03-11T10:05:28.383Z,2.05
2023-03-11T10:08:04.578Z,1.75
2023-03-11T10:10:40.186Z,2.60
2023-03-11T10:13:14.399Z,1.92
2023-03-11T10:15:52.412Z,2.38
2023-03-11T10:18:39.011Z,1.75
2023-03-11T10:21:14.856Z,1.77
2023-03-11T10:23:57.828Z,2.80
2023-03-11T10:26:33.480Z,2.13
2023-03-11T10:29:08.840Z,1.92
2023-03-11T10:31:43.385Z,1.98
2023-03-11T10:34:16.665Z,1.70
2023-03-11T10:36:57.085Z,1.55
2023-03-11T10:39:26.286Z,2.05
2023-03-11T10:41:56.699Z,2.08
2023-03-11T10:44:29.346Z,1.90
2023-03-11T10:46:58.738Z,1.90
2023-03-11T10:49:27.296Z,1.88
2023-03-11T10:51:57.215Z,1.88
2023-03-11T10:54:28.848Z,2.10
2023-03-11T10:56:59.093Z,1.90
2023-03-11T10:59:31.344Z,2.30
2023-03-11T11:02:02.601Z,1.95
2023-03-11T11:04:36.220Z,1.80
2023-03-11T11:07:30.185Z,2.03
2023-03-11T11:10:17.284Z,2.10
2023-03-11T11:12:59.562Z,2.25
2023-03-11T11:15:30.545Z,1.70
2023-03-11T11:18:02.055Z,2.00
2023-03-11T11:20:31.415Z,1.92
2023-03-11T11:23:01.415Z,1.90
2023-03-11T11:25:33.686Z,2.10
2023-03-11T11:28:05.286Z,1.73
2023-03-11T11:30:33.416Z,1.95
2023-03-11T11:33:25.682Z,1.83
2023-03-11T11:35:56.223Z,1.55
2023-03-11T11:38:26.098Z,2.00
2023-03-11T11:40:56.365Z,2.42
2023-03-11T11:43:36.182Z,2.10
2023-03-11T11:46:08.386Z,1.90
2023-03-11T11:48:46.098Z,1.98
2023-03-11T11:51:21.003Z,1.80
2023-03-11T11:53:53.571Z,2.08
2023-03-11T11:56:25.615Z,2.10
2023-03-11T11:58:54.737Z,1.98
2023-03-11T12:01:35.250Z,1.80
2023-03-11T12:04:28.308Z,1.83
2023-03-11T12:07:14.781Z,2.42
2023-03-11T12:09:51.097Z,2.13
2023-03-11T12:12:28.154Z,2.67
2023-03-11T12:15:03.621Z,2.47
2023-03-11T12:17:33.308Z,2.47
2023-03-11T12:20:08.691Z,2.17
2023-03-11T12:22:55.310Z,1.30
2023-03-11T12:25:29.982Z,1.63
2023-03-11T12:28:04.433Z,1.35
2023-03-11T12:30:37.795Z,1.30
2023-03-11T12:33:15.624Z,1.20
2023-03-11T12:35:50.844Z,1.38
2023-03-11T12:38:21.228Z,1.38
2023-03-11T12:41:00.317Z,1.40
2023-03-11T12:44:11.511Z,1.23
2023-03-11T12:47:02.989Z,1.42
2023-03-11T12:49:31.715Z,1.30
2023-03-11T12:52:17.293Z,1.58
2023-03-11T12:54:46.556Z,1.30
2023-03-11T12:57:35.755Z,1.30
2023-03-11T13:00:19.345Z,1.60
2023-03-11T13:03:11.357Z,1.27
2023-03-11T13:05:58.461Z,1.38
2023-03-11T13:08:30.391Z,1.70
2023-03-11T13:10:59.324Z,1.52
2023-03-11T13:13:39.316Z,1.77
2023-03-11T13:16:39.806Z,1.80
2023-03-11T13:19:34.806Z,1.40
2023-03-11T13:22:03.942Z,2.08
2023-03-11T13:24:52.510Z,1.65
2023-03-11T13:27:43.064Z,1.33
2023-03-11T13:30:18.765Z,1.40
2023-03-11T13:33:15.277Z,1.70
2023-03-11T13:35:57.825Z,1.70
2023-03-11T13:38:49.303Z,1.90
2023-03-11T13:41:23.822Z,1.65
2023-03-11T13:43:52.476Z,1.75
2023-03-11T13:46:28.919Z,1.80
2023-03-11T13:49:04.007Z,1.40
2023-03-11T13:51:39.224Z,1.90
2023-03-11T13:54:23.965Z,1.77
2023-03-11T13:56:58.030Z,1.40
2023-03-11T13:59:28.652Z,1.30
2023-03-11T14:02:00.305Z,1.45
2023-03-11T14:04:30.205Z,1.38
2023-03-11T14:06:58.660Z,1.80
2023-03-11T14:09:29.645Z,1.35
2023-03-11T14:12:08.110Z,1.73
2023-03-11T14:14:47.812Z,1.35
2023-03-11T14:17:18.019Z,1.27
2023-03-11T14:20:04.675Z,1.45
2023-03-11T14:22:32.928Z,1.38
2023-03-11T14:25:10.986Z,1.60
2023-03-11T14:27:40.750Z,1.30
2023-03-11T14:30:19.255Z,1.30
2023-03-11T14:32:58.097Z,1.50
2023-03-11T14:35:26.696Z,1.58
2023-03-11T14:37:55.011Z,1.52
2023-03-11T14:40:30.519Z,1.80
2023-03-11T14:43:02.887Z,1.52
2023-03-11T14:45:33.668Z,1.48
2023-03-11T14:48:05.979Z,1.83
2023-03-11T14:50:36.252Z,1.40
2023-03-11T14:53:09.955Z,1.50
2023-03-11T14:55:41.172Z,1.50
2023-03-11T14:58:16.328Z,2.15
2023-03-11T15:00:50.061Z,1.70
2023-03-11T15:03:24.480Z,1.48
2023-03-11T15:05:55.653Z,1.05
2023-03-11T15:08:27.050Z,1.30
2023-03-11T15:11:15.457Z,1.80
2023-03-11T15:13:47.405Z,1.23
2023-03-11T15:16:34.018Z,1.40
2023-03-11T15:19:03.544Z,1.60
2023-03-11T15:21:31.663Z,1.17
2023-03-11T15:24:05.258Z,1.02
2023-03-11T15:26:35.862Z,1.20
2023-03-11T15:29:14.750Z,1.10
2023-03-11T15:31:47.547Z,0.77
2023-03-11T15:34:28.345Z,1.23
2023-03-11T15:36:59.885Z,1.40
2023-03-11T15:39:41.125Z,1.27
2023-03-11T15:42:15.548Z,1.50
2023-03-11T15:44:53.647Z,1.48
2023-03-11T15:47:23.537Z,1.30
2023-03-11T15:49:51.971Z,1.30
2023-03-11T15:52:20.517Z,1.15
2023-03-11T15:54:55.410Z,1.38
2023-03-11T15:57:27.292Z,1.13
2023-03-11T15:59:58.255Z,1.02
2023-03-11T16:02:28.242Z,1.13
2023-03-11T16:04:57.077Z,1.02
2023-03-11T16:07:38.776Z,1.13
2023-03-11T16:10:07.870Z,0.82
2023-03-11T16:16:28.251Z,1.10
2023-03-11T16:19:01.076Z,0.65
2023-03-11T16:25:46.591Z,1.10
2023-03-11T16:28:20.169Z,1.23
2023-03-11T16:30:53.563Z,2.15
2023-03-11T16:33:37.074Z,1.63
2023-03-11T16:36:38.420Z,1.60
2023-03-11T16:40:00.317Z,1.40
2023-03-11T16:42:59.146Z,1.37
2023-03-11T16:49:16.006Z,1.70
2023-03-11T16:51:54.646Z,1.33
2023-03-11T16:58:07.630Z,2.00
2023-03-11T17:01:35.739Z,1.87
2023-03-11T17:04:48.656Z,1.23
2023-03-11T17:07:16.962Z,1.37
2023-03-11T17:09:44.946Z,1.27
2023-03-11T17:12:15.718Z,2.07
2023-03-11T17:14:43.808Z,1.87
2023-03-11T17:17:11.897Z,1.60
2023-03-11T17:19:41.344Z,1.67
2023-03-11T17:22:09.400Z,1.70
2023-03-11T17:24:37.778Z,1.40
2023-03-11T17:27:05.992Z,1.30
2023-03-11T17:29:34.852Z,1.63
2023-03-11T17:32:03.518Z,1.63
2023-03-11T17:34:31.629Z,1.37
2023-03-11T17:37:01.046Z,1.20
2023-03-11T17:39:29.484Z,1.70
2023-03-11T17:41:57.639Z,1.50
2023-03-11T17:44:25.737Z,1.57
2023-03-11T17:46:53.821Z,1.40
2023-03-11T17:49:24.549Z,1.30
2023-03-11T17:51:52.770Z,1.50
2023-03-11T17:54:22.237Z,1.60
2023-03-11T17:56:50.333Z,1.50
2023-03-11T17:59:18.358Z,1.50
2023-03-11T18:01:47.645Z,1.20
2023-03-11T18:04:15.864Z,1.90
2023-03-11T18:06:44.349Z,1.90
2023-03-11T18:09:12.499Z,1.50
2023-03-11T18:11:41.983Z,1.93
2023-03-11T18:14:10.163Z,1.47
2023-03-11T18:16:38.576Z,1.30
2023-03-11T18:19:06.789Z,1.80
2023-03-11T18:21:34.973Z,1.77
2023-03-11T18:24:03.192Z,1.93
2023-03-11T18:26:31.882Z,2.20
2023-03-11T18:29:02.275Z,1.80
2023-03-11T18:31:32.079Z,2.20
2023-03-11T18:34:02.382Z,2.20
2023-03-11T18:36:32.378Z,1.97
2023-03-11T18:39:04.772Z,2.30
2023-03-11T18:41:35.493Z,1.97
2023-03-11T18:44:08.475Z,2.43
2023-03-11T18:46:36.598Z,2.67
2023-03-11T18:49:05.590Z,2.50
2023-03-11T18:51:34.297Z,2.90
2023-03-11T18:54:02.815Z,2.40
2023-03-11T18:56:32.126Z,2.33
2023-03-11T18:59:00.380Z,2.37
2023-03-11T19:01:30.003Z,2.40
2023-03-11T19:03:59.952Z,2.03
2023-03-11T19:06:29.178Z,2.70
2023-03-11T19:08:57.840Z,2.10
2023-03-11T19:11:26.967Z,1.80
2023-03-11T19:13:55.133Z,2.10
2023-03-11T19:16:26.078Z,2.07
2023-03-11T19:18:56.479Z,2.90
2023-03-11T19:21:25.888Z,2.30
2023-03-11T19:23:55.326Z,2.37
2023-03-11T19:26:30.861Z,3.10
2023-03-11T19:29:10.297Z,2.40
2023-03-11T19:31:38.489Z,2.77
2023-03-11T19:34:08.207Z,3.37
2023-03-11T19:36:36.269Z,2.97
2023-03-11T19:39:04.648Z,3.10
2023-03-11T19:41:32.698Z,3.13
2023-03-11T19:44:00.897Z,2.83
2023-03-11T19:46:29.786Z,3.30
2023-03-11T19:48:58.895Z,2.60
2023-03-11T19:51:32.922Z,2.73
2023-03-11T19:54:07.289Z,2.93
2023-03-11T19:56:35.506Z,3.00
2023-03-11T19:59:07.267Z,3.20
2023-03-11T20:01:35.425Z,2.40
2023-03-11T20:04:03.624Z,2.90
2023-03-11T20:06:33.147Z,2.97
2023-03-11T20:09:01.258Z,2.80
2023-03-11T20:11:29.453Z,3.20
2023-03-11T20:13:57.493Z,2.80
2023-03-11T20:16:25.834Z,3.57
2023-03-11T20:18:53.898Z,3.47
2023-03-11T20:21:22.356Z,2.93
2023-03-11T20:23:54.359Z,3.07
2023-03-11T20:26:22.632Z,2.80
2023-03-11T20:28:50.890Z,2.93
2023-03-11T20:31:21.004Z,3.07
2023-03-11T20:33:50.346Z,2.70
2023-03-11T20:36:21.138Z,3.00
2023-03-11T20:38:51.103Z,2.53
2023-03-11T20:41:19.720Z,3.00
2023-03-11T20:43:47.848Z,2.80
2023-03-11T20:46:16.109Z,2.83
2023-03-11T20:48:44.295Z,3.23
2023-03-11T20:51:15.766Z,3.17
2023-03-11T20:53:43.998Z,3.10
2023-03-11T20:56:16.173Z,3.10
2023-03-11T20:58:45.736Z,2.50
2023-03-11T21:01:15.989Z,2.90
2023-03-11T21:03:46.379Z,2.50
2023-03-11T21:06:18.325Z,2.50
2023-03-11T21:08:46.985Z,3.80
2023-03-11T21:11:17.457Z,4.20
2023-03-11T21:13:45.759Z,3.97
2023-03-11T21:16:14.713Z,3.30
2023-03-11T21:18:44.351Z,3.00
2023-03-11T21:21:13.224Z,2.80
2023-03-11T21:23:42.378Z,2.93
2023-03-11T21:26:12.141Z,3.00
2023-03-11T21:28:46.831Z,2.90
2023-03-11T21:31:16.976Z,2.87
2023-03-11T21:33:45.493Z,2.40
2023-03-11T21:36:15.085Z,3.30
2023-03-11T21:38:43.297Z,3.37
2023-03-11T21:41:13.348Z,2.70
2023-03-11T21:43:43.911Z,2.83
2023-03-11T21:46:14.051Z,2.70
2023-03-11T21:48:42.256Z,2.70
2023-03-11T21:51:10.461Z,2.67
2023-03-11T21:53:38.854Z,2.40
2023-03-11T21:56:07.537Z,2.90
2023-03-11T21:58:35.753Z,2.77
2023-03-11T22:01:05.531Z,3.27
2023-03-11T22:03:35.874Z,3.20
2023-03-11T22:06:07.355Z,2.80
2023-03-11T22:08:36.039Z,2.83
2023-03-11T22:11:04.812Z,3.37
2023-03-11T22:13:32.880Z,3.43
2023-03-11T22:16:07.389Z,3.20
2023-03-11T22:18:35.702Z,2.90
2023-03-11T22:21:03.855Z,2.83
2023-03-11T22:23:32.293Z,3.33
2023-03-11T22:26:09.688Z,3.10
2023-03-11T22:28:37.898Z,3.77
2023-03-11T22:31:12.119Z,3.50
2023-03-11T22:33:40.485Z,3.60
2023-03-11T22:36:09.618Z,3.23
2023-03-11T22:38:40.033Z,3.37
2023-03-11T22:41:10.188Z,3.20
2023-03-11T22:43:38.773Z,3.60
2023-03-11T22:46:07.604Z,3.20
2023-03-11T22:48:37.577Z,6.30
2023-03-11T22:51:07.085Z,4.80
2023-03-11T22:53:35.195Z,3.07
2023-03-11T22:56:08.361Z,3.33
2023-03-11T22:58:36.811Z,3.13
2023-03-11T23:01:05.829Z,3.53
2023-03-11T23:03:34.958Z,4.27
2023-03-11T23:06:06.749Z,3.83
2023-03-11T23:08:35.938Z,2.90
2023-03-11T23:11:05.262Z,3.43
2023-03-11T23:13:35.841Z,3.20
2023-03-11T23:16:07.261Z,3.20
2023-03-11T23:18:35.828Z,3.50
2023-03-11T23:21:05.851Z,3.73
2023-03-11T23:23:33.960Z,3.30
2023-03-11T23:26:02.047Z,3.60
2023-03-11T23:28:30.097Z,3.27
2023-03-11T23:30:58.244Z,3.30
2023-03-11T23:33:26.417Z,3.87
2023-03-11T23:35:54.518Z,3.83
2023-03-11T23:38:23.989Z,2.93
2023-03-11T23:40:52.262Z,4.17
2023-03-11T23:43:20.508Z,3.33
2023-03-11T23:45:48.649Z,3.20
2023-03-11T23:48:16.756Z,2.97
2023-03-11T23:50:46.708Z,3.60
2023-03-11T23:53:15.134Z,3.40
2023-03-11T23:55:44.808Z,2.90
2023-03-11T23:58:13.085Z,3.20
